Time;durP1;ratioP1;P1;durP2;ratioP2;P2;SDS_P1;SDS_P2;PMS_P1;PMS_P2;Temp;Humidity;BMP_temperature;BMP_pressure;BME280_temperature;BME280_humidity;BME280_pressure;Samples;Min_cycle;Max_cycle;Signal;HPM_P1;HPM_P2
2023/05/02 00:01:36;;;;;;;4.80;3.03;;;20.00;71.10;;;;;;5032698;28;20026;-67
2023/05/02 00:04:02;;;;;;;4.80;2.72;;;20.00;71.10;;;;;;5031624;28;20071;-67
2023/05/02 00:06:30;;;;;;;5.25;2.60;;;20.00;71.10;;;;;;5032407;28;20026;-67
2023/05/02 00:08:55;;;;;;;4.78;2.70;;;20.00;71.10;;;;;;5031526;28;20021;-67
2023/05/02 00:11:23;;;;;;;4.20;3.03;;;20.00;71.10;;;;;;5031947;28;20427;-67
2023/05/02 00:13:48;;;;;;;7.00;3.05;;;20.00;71.20;;;;;;5032506;28;20075;-67
2023/05/02 00:16:14;;;;;;;5.88;2.58;;;20.00;71.20;;;;;;5032500;28;20109;-67
2023/05/02 00:18:40;;;;;;;5.70;2.75;;;19.90;71.10;;;;;;5032116;28;20022;-67
2023/05/02 00:21:06;;;;;;;4.38;2.80;;;20.00;71.30;;;;;;5032388;28;20033;-67
2023/05/02 00:23:32;;;;;;;10.10;2.58;;;19.90;71.20;;;;;;5032281;28;20029;-67
2023/05/02 00:25:57;;;;;;;5.93;2.72;;;19.90;71.20;;;;;;5033674;28;20021;-67
2023/05/02 00:28:25;;;;;;;7.63;3.00;;;19.90;71.30;;;;;;5037581;28;20409;-67
2023/05/02 00:30:50;;;;;;;3.28;2.75;;;19.90;71.30;;;;;;5039001;28;20033;-67
2023/05/02 00:33:16;;;;;;;4.15;2.60;;;19.90;71.40;;;;;;5037642;28;20026;-67
2023/05/02 00:35:42;;;;;;;4.68;2.78;;;19.90;71.40;;;;;;5038972;28;20404;-67
2023/05/02 00:38:07;;;;;;;5.68;3.03;;;19.90;71.40;;;;;;5038692;28;20039;-67
2023/05/02 00:40:53;;;;;;;4.95;2.67;;;19.90;71.50;;;;;;5037381;28;20025;-67
2023/05/02 00:43:20;;;;;;;5.38;2.92;;;19.90;71.50;;;;;;5038498;28;20033;-67
2023/05/02 00:45:46;;;;;;;3.78;2.55;;;19.80;71.50;;;;;;5038708;28;20017;-67
2023/05/02 00:48:12;;;;;;;4.57;2.88;;;19.80;71.50;;;;;;5021027;28;20033;-67
2023/05/02 00:50:39;;;;;;;5.35;2.70;;;19.80;72.50;;;;;;5038749;28;20091;-67
2023/05/02 00:53:06;;;;;;;4.35;2.53;;;19.80;71.60;;;;;;5021379;28;20021;-67
2023/05/02 00:55:35;;;;;;;4.68;2.80;;;19.80;71.60;;;;;;5037102;28;20084;-68
2023/05/02 00:58:13;;;;;;;5.38;2.92;;;19.80;71.70;;;;;;5037139;28;20046;-67
2023/05/02 01:00:42;;;;;;;2.75;2.38;;;19.80;71.70;;;;;;5020996;28;20472;-67
2023/05/02 01:03:34;;;;;;;3.40;2.53;;;19.80;71.70;;;;;;5038757;28;20026;-67
2023/05/02 01:06:25;;;;;;;3.70;2.53;;;19.80;71.80;;;;;;5038122;28;20038;-68
2023/05/02 01:09:31;;;;;;;4.47;2.85;;;19.80;71.80;;;;;;5037623;28;20025;-67
2023/05/02 01:12:12;;;;;;;4.85;2.90;;;19.80;71.80;;;;;;4957713;29;20042;-67
2023/05/02 01:14:41;;;;;;;5.13;2.67;;;19.80;71.90;;;;;;4958075;28;20039;-68
2023/05/02 01:17:11;;;;;;;5.40;2.95;;;19.70;71.90;;;;;;4942232;29;20046;-67
2023/05/02 01:19:40;;;;;;;4.03;2.70;;;19.80;72.10;;;;;;4951501;28;20103;-67
2023/05/02 01:22:10;;;;;;;3.28;2.80;;;19.70;72.00;;;;;;4957968;28;20035;-67
2023/05/02 01:24:47;;;;;;;3.88;2.83;;;19.80;72.10;;;;;;4957745;28;20520;-67
2023/05/02 01:27:40;;;;;;;3.45;2.75;;;19.70;72.00;;;;;;4958020;28;20034;-67
2023/05/02 01:30:07;;;;;;;4.10;2.47;;;19.80;72.00;;;;;;4957952;29;20114;-67
2023/05/02 01:32:32;;;;;;;5.13;2.50;;;19.70;72.00;;;;;;4957871;28;20414;-67
2023/05/02 01:34:58;;;;;;;4.22;2.33;;;19.70;72.00;;;;;;4958056;29;20065;-67
2023/05/02 01:37:23;;;;;;;4.20;2.50;;;19.70;72.00;;;;;;4957002;28;20049;-67
2023/05/02 01:39:49;;;;;;;2.35;2.17;;;19.70;72.00;;;;;;4954773;29;20106;-67
2023/05/02 01:42:15;;;;;;;3.60;2.78;;;19.70;72.00;;;;;;4954763;29;20126;-67
2023/05/02 01:44:41;;;;;;;4.05;2.38;;;19.70;72.10;;;;;;4954802;29;20027;-67
2023/05/02 01:47:06;;;;;;;5.40;2.83;;;19.70;72.20;;;;;;4954795;29;20494;-67
2023/05/02 01:49:32;;;;;;;2.53;2.33;;;19.70;72.10;;;;;;4999886;28;20042;-67
2023/05/02 01:51:59;;;;;;;5.38;2.40;;;19.70;72.20;;;;;;5030683;28;20022;-67
2023/05/02 01:54:25;;;;;;;5.63;2.58;;;19.70;72.20;;;;;;5013719;28;20108;-67
2023/05/02 01:56:51;;;;;;;3.20;2.47;;;19.70;72.20;;;;;;5030156;28;20130;-67
2023/05/02 01:59:18;;;;;;;2.78;2.35;;;19.70;72.20;;;;;;5015099;28;20026;-67
2023/05/02 02:01:44;;;;;;;3.58;2.42;;;19.70;72.20;;;;;;5030303;28;20076;-67
2023/05/02 02:04:10;;;;;;;5.53;2.40;;;19.70;72.20;;;;;;5030204;28;20018;-67
2023/05/02 02:06:36;;;;;;;2.55;2.15;;;19.70;72.20;;;;;;5013729;28;20030;-67
2023/05/02 02:09:02;;;;;;;2.70;2.38;;;19.70;72.20;;;;;;5014859;28;20441;-67
2023/05/02 02:11:39;;;;;;;4.28;2.90;;;19.70;72.20;;;;;;5017843;28;20057;-67
2023/05/02 02:14:11;;;;;;;4.00;2.60;;;19.60;72.10;;;;;;5033504;28;20029;-67
2023/05/02 02:16:37;;;;;;;3.17;2.45;;;19.70;72.30;;;;;;5033254;28;20025;-66
2023/05/02 02:19:05;;;;;;;3.45;2.55;;;19.60;72.20;;;;;;5033119;28;20036;-67
2023/05/02 02:21:31;;;;;;;4.75;2.42;;;19.60;72.20;;;;;;5016745;28;20079;-67
2023/05/02 02:23:56;;;;;;;4.05;2.30;;;19.60;72.30;;;;;;5016717;28;20096;-67
2023/05/02 02:26:22;;;;;;;3.50;2.10;;;19.60;72.30;;;;;;5016766;28;20040;-67
2023/05/02 02:28:48;;;;;;;3.15;2.60;;;19.60;72.40;;;;;;5033071;28;20100;-67
2023/05/02 02:31:13;;;;;;;3.13;2.42;;;19.60;72.40;;;;;;5032927;28;20507;-67
2023/05/02 02:33:39;;;;;;;3.92;2.30;;;19.60;72.40;;;;;;5034132;28;20492;-67
2023/05/02 02:36:11;;;;;;;4.28;2.30;;;19.60;72.40;;;;;;5033993;28;20448;-67
2023/05/02 02:38:41;;;;;;;4.30;2.53;;;19.50;72.40;;;;;;5032800;28;20396;-67
2023/05/02 02:41:15;;;;;;;2.40;2.20;;;19.60;72.40;;;;;;5032885;28;20096;-67
2023/05/02 02:43:57;;;;;;;4.10;2.60;;;19.60;72.50;;;;;;5016294;28;20025;-67
2023/05/02 02:46:48;;;;;;;4.70;2.30;;;19.50;72.50;;;;;;5032932;28;20087;-67
2023/05/02 02:49:27;;;;;;;6.78;2.40;;;19.50;72.50;;;;;;5033459;28;20053;-67
2023/05/02 02:52:19;;;;;;;4.50;2.20;;;19.50;72.50;;;;;;5032382;28;20072;-67
2023/05/02 02:54:58;;;;;;;2.60;2.40;;;19.50;72.50;;;;;;5024917;28;20037;-67
2023/05/02 02:57:43;;;;;;;4.15;2.25;;;19.50;72.60;;;;;;5032415;28;20496;-67
2023/05/02 03:00:17;;;;;;;2.92;2.40;;;19.50;72.60;;;;;;5016960;28;20129;-66
2023/05/02 03:02:43;;;;;;;2.08;1.80;;;19.50;72.60;;;;;;5032310;28;20506;-67
2023/05/02 03:05:09;;;;;;;2.63;2.30;;;19.50;72.60;;;;;;5015983;28;20128;-67
2023/05/02 03:07:35;;;;;;;4.05;2.30;;;19.50;72.70;;;;;;5033473;28;20013;-67
2023/05/02 03:10:02;;;;;;;3.95;2.53;;;19.50;72.70;;;;;;5033604;28;20021;-66
2023/05/02 03:12:28;;;;;;;2.92;2.15;;;19.50;72.70;;;;;;5032177;28;20025;-67
2023/05/02 03:15:02;;;;;;;4.03;2.20;;;19.50;72.70;;;;;;5033328;28;20036;-67
2023/05/02 03:17:28;;;;;;;2.47;2.10;;;19.50;72.80;;;;;;5032241;28;20104;-67
2023/05/02 03:19:54;;;;;;;3.90;2.45;;;19.50;72.80;;;;;;5031621;28;20451;-67
2023/05/02 03:22:19;;;;;;;2.60;2.40;;;19.50;72.80;;;;;;5033363;28;20072;-67
2023/05/02 03:24:45;;;;;;;2.78;2.40;;;19.50;72.80;;;;;;5033058;28;20499;-67
2023/05/02 03:27:11;;;;;;;2.45;2.20;;;19.40;72.70;;;;;;5033135;28;20112;-67
2023/05/02 03:29:36;;;;;;;3.42;2.15;;;19.40;72.80;;;;;;5033282;28;20025;-67
2023/05/02 03:32:02;;;;;;;7.38;2.60;;;19.40;72.80;;;;;;5033127;28;20083;-67
2023/05/02 03:34:28;;;;;;;2.17;1.90;;;19.40;72.90;;;;;;5032883;28;20025;-67
2023/05/02 03:36:53;;;;;;;3.42;2.10;;;19.40;73.00;;;;;;5033091;28;20037;-67
2023/05/02 03:39:19;;;;;;;3.40;2.20;;;19.40;73.10;;;;;;5033090;28;20577;-67
2023/05/02 03:41:45;;;;;;;2.80;2.28;;;19.40;73.10;;;;;;5033015;28;20412;-67
2023/05/02 03:44:10;;;;;;;2.45;2.20;;;19.40;73.10;;;;;;5032782;28;20025;-67
2023/05/02 03:46:36;;;;;;;2.40;2.10;;;19.40;73.10;;;;;;5032735;28;20151;-67
2023/05/02 03:49:02;;;;;;;2.60;2.20;;;19.40;73.10;;;;;;5032677;28;20099;-67
2023/05/02 03:51:28;;;;;;;2.35;2.03;;;19.40;73.10;;;;;;5032741;28;20029;-67
2023/05/02 03:53:53;;;;;;;3.22;2.10;;;19.40;73.10;;;;;;5032685;28;20021;-67
2023/05/02 03:56:19;;;;;;;3.13;2.10;;;19.40;73.00;;;;;;5032623;28;20049;-67
2023/05/02 03:58:45;;;;;;;2.15;1.90;;;19.40;73.10;;;;;;5032391;28;20056;-67
2023/05/02 04:01:17;;;;;;;4.05;2.28;;;19.40;73.00;;;;;;5031842;28;20026;-67
2023/05/02 04:03:42;;;;;;;2.72;2.33;;;19.40;73.10;;;;;;5031093;28;20028;-67
2023/05/02 04:06:08;;;;;;;2.50;1.98;;;19.40;73.00;;;;;;5031474;28;20029;-67
2023/05/02 04:08:34;;;;;;;3.85;2.15;;;19.40;73.00;;;;;;5032362;28;20025;-67
2023/05/02 04:10:59;;;;;;;2.30;2.10;;;19.40;73.10;;;;;;5032503;28;20384;-67
2023/05/02 04:13:25;;;;;;;2.28;2.00;;;19.40;73.00;;;;;;5032389;28;20047;-67
2023/05/02 04:15:51;;;;;;;2.70;2.05;;;19.40;73.10;;;;;;5032361;28;20413;-67
2023/05/02 04:18:16;;;;;;;2.80;1.80;;;19.40;73.10;;;;;;5032058;28;20078;-66
2023/05/02 04:20:43;;;;;;;4.57;2.38;;;19.30;73.00;;;;;;5032291;28;20018;-66
2023/05/02 04:23:09;;;;;;;3.10;2.30;;;19.30;73.00;;;;;;5015042;28;20021;-66
2023/05/02 04:25:34;;;;;;;2.85;1.98;;;19.30;73.00;;;;;;5032339;28;20522;-67
2023/05/02 04:28:00;;;;;;;2.72;2.08;;;19.30;73.00;;;;;;5032172;28;20029;-67
2023/05/02 04:30:26;;;;;;;2.55;2.15;;;19.30;73.00;;;;;;5032421;28;20038;-67
2023/05/02 04:32:52;;;;;;;2.15;2.00;;;19.30;73.00;;;;;;5032047;28;20049;-67
2023/05/02 04:35:18;;;;;;;2.55;2.13;;;19.30;73.10;;;;;;5032209;28;20017;-67
2023/05/02 04:37:43;;;;;;;2.10;1.90;;;19.30;73.00;;;;;;5030994;28;20155;-67
2023/05/02 04:40:10;;;;;;;2.17;1.98;;;19.30;73.10;;;;;;5032261;28;20029;-66
2023/05/02 04:42:35;;;;;;;3.63;1.98;;;19.30;73.00;;;;;;5032289;28;20016;-67
2023/05/02 04:45:01;;;;;;;3.10;2.45;;;19.30;73.00;;;;;;5032210;28;20021;-67
2023/05/02 04:47:27;;;;;;;2.30;2.10;;;19.30;73.00;;;;;;5030703;28;20105;-67
2023/05/02 04:49:52;;;;;;;2.65;1.95;;;19.30;73.00;;;;;;5032081;28;20476;-67
2023/05/02 04:52:18;;;;;;;2.63;1.83;;;19.30;73.10;;;;;;5032182;28;20025;-66
2023/05/02 04:54:44;;;;;;;1.90;1.80;;;19.30;73.10;;;;;;5032154;28;20037;-67
2023/05/02 04:57:09;;;;;;;2.08;1.70;;;19.30;73.10;;;;;;5031870;28;20045;-67
2023/05/02 04:59:37;;;;;;;4.45;2.10;;;19.30;73.10;;;;;;5030714;28;20040;-67
2023/05/02 05:02:03;;;;;;;2.38;2.08;;;19.30;73.10;;;;;;5031789;28;20100;-67
2023/05/02 05:04:28;;;;;;;2.10;2.00;;;19.30;73.20;;;;;;5030845;28;20053;-67
2023/05/02 05:06:54;;;;;;;4.18;2.08;;;19.30;73.10;;;;;;5032401;28;20026;-67
2023/05/02 05:09:20;;;;;;;2.00;1.75;;;19.30;73.20;;;;;;5031959;28;20026;-67
2023/05/02 05:11:45;;;;;;;2.78;2.17;;;19.30;73.20;;;;;;5031724;28;20018;-67
2023/05/02 05:14:11;;;;;;;1.92;1.83;;;19.30;73.20;;;;;;5035758;28;20108;-67
2023/05/02 05:16:37;;;;;;;2.67;2.00;;;19.30;73.20;;;;;;5035512;28;20403;-67
2023/05/02 05:19:03;;;;;;;5.38;2.00;;;19.30;73.20;;;;;;5035423;28;20056;-67
2023/05/02 05:21:29;;;;;;;3.08;1.90;;;19.30;73.20;;;;;;5035714;28;20018;-67
2023/05/02 05:23:55;;;;;;;2.00;1.80;;;19.20;73.10;;;;;;5034104;28;20377;-67
2023/05/02 05:26:22;;;;;;;3.53;2.15;;;19.20;73.10;;;;;;5035550;28;20028;-67
2023/05/02 05:28:49;;;;;;;2.53;2.22;;;19.20;73.10;;;;;;5035307;28;20057;-67
2023/05/02 05:31:16;;;;;;;1.85;1.75;;;19.20;73.10;;;;;;5033975;28;20026;-67
2023/05/02 05:33:41;;;;;;;1.75;1.63;;;19.20;73.20;;;;;;5035471;28;20129;-67
2023/05/02 05:36:08;;;;;;;2.35;1.90;;;19.20;73.20;;;;;;5034053;28;20061;-67
2023/05/02 05:38:34;;;;;;;2.42;1.90;;;19.20;73.20;;;;;;5033878;28;20180;-67
2023/05/02 05:41:00;;;;;;;1.80;1.70;;;19.20;73.20;;;;;;5033952;28;20492;-67
2023/05/02 05:43:26;;;;;;;2.55;1.80;;;19.20;74.20;;;;;;5035123;28;20022;-67
2023/05/02 05:45:52;;;;;;;2.42;1.92;;;19.20;73.30;;;;;;5017477;28;20041;-67
2023/05/02 05:48:18;;;;;;;3.10;2.00;;;19.10;73.20;;;;;;5028215;28;20398;-67
2023/05/02 05:50:43;;;;;;;1.98;1.52;;;19.10;73.30;;;;;;5014524;28;20030;-67
2023/05/02 05:53:09;;;;;;;8.02;2.33;;;19.20;72.70;;;;;;5014334;28;20100;-67
2023/05/02 05:55:36;;;;;;;3.33;2.20;;;19.10;71.20;;;;;;5015577;28;20092;-67
2023/05/02 05:58:02;;;;;;;3.42;2.00;;;19.10;70.40;;;;;;5015274;28;20053;-67
2023/05/02 06:00:28;;;;;;;3.90;1.83;;;19.00;70.00;;;;;;5015197;28;20022;-67
2023/05/02 06:02:54;;;;;;;2.10;1.80;;;19.00;69.50;;;;;;5015340;28;20030;-67
2023/05/02 06:05:19;;;;;;;2.85;2.00;;;19.00;68.90;;;;;;5015486;28;20024;-67
2023/05/02 06:07:45;;;;;;;2.08;1.70;;;18.90;68.30;;;;;;5015356;28;20505;-67
2023/05/02 06:10:11;;;;;;;2.70;1.83;;;18.90;67.90;;;;;;5015511;28;20029;-68
2023/05/02 06:12:36;;;;;;;1.85;1.63;;;18.90;67.60;;;;;;5027874;28;20037;-67
2023/05/02 06:15:02;;;;;;;1.83;1.50;;;18.90;67.30;;;;;;5034648;28;20513;-67
2023/05/02 06:17:28;;;;;;;3.42;1.92;;;18.80;66.90;;;;;;5035189;28;20071;-67
2023/05/02 06:19:53;;;;;;;1.95;1.75;;;18.80;66.80;;;;;;5034719;28;20491;-67
2023/05/02 06:22:19;;;;;;;2.78;1.90;;;18.70;66.40;;;;;;5035098;28;20057;-68
2023/05/02 06:24:45;;;;;;;3.15;1.60;;;18.70;66.20;;;;;;5033990;28;20100;-67
2023/05/02 06:27:11;;;;;;;3.15;1.55;;;18.70;66.00;;;;;;5027000;28;20025;-67
2023/05/02 06:29:36;;;;;;;2.80;1.73;;;18.70;65.80;;;;;;5016985;28;20030;-67
2023/05/02 06:32:03;;;;;;;2.47;1.70;;;18.70;65.70;;;;;;5014965;28;20037;-67
2023/05/02 06:34:31;;;;;;;3.20;1.30;;;18.70;65.70;;;;;;5013775;28;20096;-67
2023/05/02 06:36:57;;;;;;;4.15;1.60;;;18.60;65.50;;;;;;4997340;28;20843;-67
2023/05/02 06:39:23;;;;;;;3.80;1.50;;;18.60;65.50;;;;;;5014808;28;20054;-67
2023/05/02 06:41:49;;;;;;;3.72;1.88;;;18.60;65.30;;;;;;5014570;28;20057;-67
2023/05/02 06:44:15;;;;;;;3.28;1.50;;;18.60;65.30;;;;;;5013253;28;20018;-67
2023/05/02 06:46:40;;;;;;;2.15;1.73;;;18.60;66.50;;;;;;5013553;28;20145;-67
2023/05/02 06:49:06;;;;;;;2.65;1.58;;;18.50;65.40;;;;;;5014536;28;20056;-67
2023/05/02 06:51:31;;;;;;;2.72;1.50;;;18.60;65.40;;;;;;5014872;28;20778;-68
2023/05/02 06:53:57;;;;;;;4.30;1.52;;;18.50;65.20;;;;;;5014582;28;20037;-67
2023/05/02 06:56:26;;;;;;;5.28;1.70;;;18.50;65.40;;;;;;5013181;28;20061;-67
2023/05/02 06:58:52;;;;;;;2.92;1.70;;;18.50;65.50;;;;;;5012871;28;20034;-67
2023/05/02 07:01:18;;;;;;;2.05;1.23;;;18.50;65.70;;;;;;5012587;28;20029;-67
2023/05/02 07:03:45;;;;;;;2.90;1.60;;;18.50;65.70;;;;;;5013738;28;20439;-67
2023/05/02 07:06:11;;;;;;;2.40;1.10;;;18.50;65.70;;;;;;5012529;28;20049;-67
2023/05/02 07:08:36;;;;;;;3.20;1.30;;;18.40;65.70;;;;;;5013742;28;20396;-67
2023/05/02 07:11:02;;;;;;;5.95;1.88;;;18.40;65.90;;;;;;5014622;28;20508;-68
2023/05/02 07:13:28;;;;;;;3.47;1.40;;;18.40;66.00;;;;;;5032047;28;20025;-68
2023/05/02 07:15:53;;;;;;;3.63;1.63;;;18.40;66.10;;;;;;5031273;28;20025;-68
2023/05/02 07:18:20;;;;;;;3.47;1.60;;;18.40;66.20;;;;;;5030822;28;20022;-68
2023/05/02 07:20:45;;;;;;;4.25;1.90;;;18.30;66.30;;;;;;5033230;28;20025;-67
2023/05/02 07:23:11;;;;;;;4.63;1.65;;;18.40;66.40;;;;;;5033124;28;20064;-68
2023/05/02 07:25:38;;;;;;;2.05;1.25;;;18.30;66.50;;;;;;5033190;28;20029;-67
2023/05/02 07:28:04;;;;;;;3.40;1.42;;;18.30;66.50;;;;;;5031681;28;20020;-68
2023/05/02 07:30:30;;;;;;;2.97;1.85;;;18.40;66.70;;;;;;5015662;28;20108;-68
2023/05/02 07:32:55;;;;;;;4.00;1.63;;;18.30;66.70;;;;;;5032957;28;20097;-68
2023/05/02 07:35:21;;;;;;;3.50;1.50;;;18.30;66.80;;;;;;5032801;28;20041;-68
2023/05/02 07:37:47;;;;;;;3.63;1.35;;;18.30;66.90;;;;;;5032855;28;20028;-68
2023/05/02 07:40:12;;;;;;;2.45;1.45;;;18.30;67.00;;;;;;5033054;28;20076;-67
2023/05/02 07:42:40;;;;;;;2.38;1.30;;;18.30;67.00;;;;;;5031593;28;20447;-67
2023/05/02 07:45:06;;;;;;;2.10;1.15;;;18.30;67.10;;;;;;5031751;28;20492;-68
2023/05/02 07:47:32;;;;;;;2.47;1.40;;;18.30;67.20;;;;;;5032998;28;20044;-67
2023/05/02 07:49:57;;;;;;;2.47;1.10;;;18.30;67.20;;;;;;5031406;28;20061;-67
2023/05/02 07:52:23;;;;;;;8.98;1.95;;;18.20;67.20;;;;;;5031611;28;20057;-67
2023/05/02 07:54:49;;;;;;;2.75;1.02;;;18.20;67.10;;;;;;5032734;28;20037;-67
2023/05/02 07:57:14;;;;;;;2.50;1.08;;;18.30;67.10;;;;;;5031103;28;20416;-67
2023/05/02 07:59:40;;;;;;;2.92;1.10;;;18.20;67.00;;;;;;5031641;28;20021;-67
2023/05/02 08:02:06;;;;;;;3.22;1.38;;;18.20;66.90;;;;;;5032245;28;20029;-67
2023/05/02 08:04:32;;;;;;;6.90;1.20;;;18.20;67.00;;;;;;5032631;28;20117;-67
2023/05/02 08:06:57;;;;;;;5.70;1.45;;;18.20;67.00;;;;;;5031475;28;20014;-67
2023/05/02 08:09:23;;;;;;;2.55;1.00;;;18.20;67.00;;;;;;5032524;28;20032;-67
2023/05/02 08:11:49;;;;;;;2.30;1.38;;;18.20;67.00;;;;;;5032233;28;20079;-67
2023/05/02 08:14:15;;;;;;;3.50;1.20;;;18.20;66.80;;;;;;5032467;28;20029;-67
2023/05/02 08:16:41;;;;;;;4.03;0.95;;;18.20;66.80;;;;;;5031323;28;20025;-67
2023/05/02 08:19:06;;;;;;;2.92;1.10;;;18.20;66.90;;;;;;5031210;28;20048;-67
2023/05/02 08:21:32;;;;;;;2.25;1.13;;;18.20;66.80;;;;;;5032425;28;20017;-67
2023/05/02 08:23:58;;;;;;;2.75;0.90;;;18.20;66.70;;;;;;5030806;28;20022;-67
2023/05/02 08:26:24;;;;;;;4.32;1.23;;;18.20;66.70;;;;;;5032350;28;20044;-67
2023/05/02 08:28:53;;;;;;;2.55;1.20;;;18.20;66.60;;;;;;5031147;28;20108;-67
2023/05/02 08:31:19;;;;;;;4.78;1.13;;;18.20;66.60;;;;;;5031116;28;20021;-67
2023/05/02 08:33:45;;;;;;;1.80;1.00;;;18.10;66.50;;;;;;5032553;28;20059;-67
2023/05/02 08:36:15;;;;;;;3.05;1.08;;;18.10;66.60;;;;;;5031088;28;20523;-68
2023/05/02 08:38:41;;;;;;;5.70;1.10;;;18.20;66.60;;;;;;5030866;28;20045;-67
2023/05/02 08:41:14;;;;;;;2.55;1.20;;;18.20;66.60;;;;;;5031108;28;20061;-68
2023/05/02 08:43:40;;;;;;;2.88;0.70;;;18.10;66.60;;;;;;5032441;28;20365;-67
2023/05/02 08:46:08;;;;;;;2.00;0.93;;;18.10;66.50;;;;;;5030907;28;20037;-68
2023/05/02 08:48:35;;;;;;;2.17;0.98;;;18.10;66.40;;;;;;5034159;28;20071;-67
2023/05/02 08:51:02;;;;;;;1.67;0.95;;;18.10;66.40;;;;;;5034886;28;20030;-68
2023/05/02 08:53:32;;;;;;;3.85;1.15;;;18.10;66.30;;;;;;5034762;28;20033;-67
2023/05/02 08:55:59;;;;;;;1.88;0.80;;;18.10;66.40;;;;;;5035929;28;20029;-68
2023/05/02 08:58:24;;;;;;;4.53;1.02;;;18.10;66.30;;;;;;5034715;28;20092;-68
2023/05/02 09:00:50;;;;;;;2.13;1.00;;;18.10;66.10;;;;;;5035894;28;20479;-68
2023/05/02 09:03:32;;;;;;;3.83;0.98;;;18.10;66.00;;;;;;5034837;28;20560;-68
2023/05/02 09:06:07;;;;;;;1.50;0.75;;;18.10;65.80;;;;;;5034937;28;20029;-68
2023/05/02 09:08:34;;;;;;;3.72;0.90;;;18.10;66.10;;;;;;5034412;28;20074;-67
2023/05/02 09:11:02;;;;;;;4.32;0.93;;;18.10;65.90;;;;;;5034496;28;20396;-67
2023/05/02 09:13:31;;;;;;;2.30;0.73;;;18.10;65.90;;;;;;5034486;28;20025;-67
2023/05/02 09:15:58;;;;;;;2.20;0.68;;;18.10;65.80;;;;;;5034690;28;20480;-68
2023/05/02 09:18:27;;;;;;;2.58;0.90;;;18.10;65.90;;;;;;5034463;28;20084;-67
2023/05/02 09:20:52;;;;;;;2.08;0.73;;;18.00;65.80;;;;;;5034364;28;20480;-67
2023/05/02 09:23:18;;;;;;;1.70;0.90;;;18.10;65.80;;;;;;5033922;28;20032;-67
2023/05/02 09:25:43;;;;;;;2.35;0.70;;;18.10;66.00;;;;;;5035705;28;20057;-68
2023/05/02 09:28:09;;;;;;;2.00;0.65;;;18.00;66.30;;;;;;5034101;28;20361;-68
2023/05/02 09:30:35;;;;;;;1.15;0.70;;;18.00;67.20;;;;;;5034372;28;20033;-68
2023/05/02 09:33:00;;;;;;;2.35;0.60;;;18.00;66.20;;;;;;5035458;28;20495;-67
2023/05/02 09:35:26;;;;;;;1.92;0.80;;;18.10;66.10;;;;;;5035050;28;20026;-67
2023/05/02 09:37:55;;;;;;;2.45;0.80;;;18.10;66.10;;;;;;5035075;28;20059;-68
2023/05/02 09:40:23;;;;;;;3.65;0.80;;;18.00;66.10;;;;;;5034066;28;20031;-67
2023/05/02 09:42:49;;;;;;;2.58;0.77;;;18.00;66.10;;;;;;5017819;28;20018;-67
2023/05/02 09:45:22;;;;;;;0.65;0.50;;;18.00;66.00;;;;;;5033963;28;20067;-67
2023/05/02 09:47:48;;;;;;;3.47;0.93;;;18.00;66.00;;;;;;5033985;28;20049;-67
2023/05/02 09:50:33;;;;;;;1.45;0.80;;;18.00;66.10;;;;;;5034921;28;20022;-68
2023/05/02 09:53:07;;;;;;;1.05;0.60;;;18.10;66.20;;;;;;5034844;28;20022;-67
2023/05/02 09:55:32;;;;;;;1.48;0.63;;;18.00;66.20;;;;;;5033805;28;20021;-68
2023/05/02 09:57:58;;;;;;;1.88;0.70;;;18.00;66.10;;;;;;5016861;28;20583;-67
2023/05/02 10:00:40;;;;;;;1.13;0.60;;;18.00;67.30;;;;;;5032511;28;20396;-67
2023/05/02 10:03:07;;;;;;;0.70;0.60;;;18.00;66.00;;;;;;5034716;28;20034;-68
2023/05/02 10:05:37;;;;;;;1.35;0.60;;;18.10;66.20;;;;;;5033598;28;20761;-68
2023/05/02 10:08:06;;;;;;;1.08;0.73;;;18.00;66.20;;;;;;5034693;28;20029;-68
2023/05/02 10:10:53;;;;;;;3.28;0.70;;;18.00;66.20;;;;;;5034543;28;20026;-67
2023/05/02 10:13:21;;;;;;;2.05;0.60;;;18.00;66.40;;;;;;5033309;28;20112;-67
2023/05/02 10:15:48;;;;;;;0.95;0.60;;;18.00;66.50;;;;;;5034632;28;20021;-68
2023/05/02 10:18:20;;;;;;;2.58;0.60;;;18.00;66.30;;;;;;5033411;28;20025;-68
2023/05/02 10:20:57;;;;;;;1.45;0.52;;;18.00;66.30;;;;;;5033006;28;20025;-68
2023/05/02 10:23:29;;;;;;;0.98;0.70;;;18.00;66.20;;;;;;5033055;28;20017;-67
2023/05/02 10:25:58;;;;;;;5.07;0.77;;;18.00;66.30;;;;;;5034557;28;20075;-67
2023/05/02 10:28:27;;;;;;;1.60;0.60;;;18.00;66.30;;;;;;5017209;28;20083;-67
2023/05/02 10:30:53;;;;;;;1.98;0.60;;;18.00;66.30;;;;;;5016585;28;20404;-67
2023/05/02 10:33:22;;;;;;;0.47;0.47;;;18.00;65.80;;;;;;5016569;28;20025;-67
2023/05/02 10:35:47;;;;;;;1.13;0.70;;;18.00;65.70;;;;;;5033939;28;20021;-67
2023/05/02 10:38:19;;;;;;;0.60;0.60;;;18.10;65.70;;;;;;5034112;28;20053;-67
2023/05/02 10:40:59;;;;;;;1.42;0.60;;;18.00;65.80;;;;;;5016649;28;20033;-67
2023/05/02 10:43:27;;;;;;;1.10;0.60;;;18.00;65.70;;;;;;5016598;28;20472;-67
2023/05/02 10:45:53;;;;;;;2.10;0.60;;;18.00;65.30;;;;;;5032780;28;20432;-68
2023/05/02 10:48:25;;;;;;;3.17;0.63;;;18.00;65.20;;;;;;5032634;28;20351;-67
2023/05/02 10:50:55;;;;;;;3.28;0.65;;;18.00;65.10;;;;;;5032746;28;20100;-67
2023/05/02 10:53:32;;;;;;;1.98;0.80;;;18.00;64.90;;;;;;5033802;28;20025;-68
2023/05/02 10:56:09;;;;;;;2.25;0.70;;;18.00;65.30;;;;;;5033777;28;20034;-68
2023/05/02 10:58:35;;;;;;;1.33;0.70;;;18.00;64.80;;;;;;5033590;28;20087;-67
2023/05/02 11:01:29;;;;;;;0.90;0.50;;;18.00;64.80;;;;;;5032626;28;20017;-67
2023/05/02 11:03:56;;;;;;;2.70;0.82;;;18.00;64.80;;;;;;5033521;28;20029;-67
2023/05/02 11:06:22;;;;;;;1.25;0.60;;;18.00;64.50;;;;;;5033657;28;20049;-67
2023/05/02 11:08:48;;;;;;;2.65;0.70;;;18.00;64.50;;;;;;5032501;28;20060;-67
2023/05/02 11:11:41;;;;;;;1.33;0.50;;;18.00;64.30;;;;;;5032988;28;20025;-68
2023/05/02 11:14:08;;;;;;;1.33;0.73;;;18.00;64.30;;;;;;5033611;28;20119;-67
2023/05/02 11:16:58;;;;;;;1.88;0.80;;;18.00;64.40;;;;;;5032261;28;20017;-67
2023/05/02 11:19:27;;;;;;;1.38;0.50;;;18.00;64.30;;;;;;5032982;28;20025;-67
2023/05/02 11:22:13;;;;;;;1.20;0.60;;;18.00;64.30;;;;;;5032220;28;20040;-68
2023/05/02 11:24:48;;;;;;;1.17;0.55;;;18.00;64.30;;;;;;5032078;28;20033;-68
2023/05/02 11:27:32;;;;;;;4.10;0.75;;;18.00;64.30;;;;;;5033114;28;20025;-67
2023/05/02 11:30:08;;;;;;;0.70;0.70;;;18.00;64.20;;;;;;5033263;28;20033;-67
2023/05/02 11:32:47;;;;;;;1.00;0.68;;;18.00;63.90;;;;;;5015487;28;20021;-67
2023/05/02 11:35:22;;;;;;;2.03;0.70;;;18.00;63.90;;;;;;5033054;28;20022;-67
2023/05/02 11:38:15;;;;;;;1.45;0.60;;;18.00;64.00;;;;;;5031908;28;20096;-67
2023/05/02 11:40:54;;;;;;;1.90;0.70;;;18.00;64.00;;;;;;5031830;28;20144;-67
2023/05/02 11:43:20;;;;;;;0.95;0.60;;;18.00;63.90;;;;;;5016678;28;20030;-67
2023/05/02 11:45:46;;;;;;;0.90;0.90;;;18.00;64.00;;;;;;5031833;28;20100;-67
2023/05/02 11:48:12;;;;;;;1.85;0.70;;;18.00;64.00;;;;;;5015033;28;20060;-68
2023/05/02 11:50:44;;;;;;;3.08;0.80;;;17.90;63.90;;;;;;5015303;28;20021;-67
2023/05/02 11:53:14;;;;;;;1.85;0.73;;;18.00;63.90;;;;;;5031529;28;20021;-68
2023/05/02 11:55:44;;;;;;;2.67;0.60;;;18.00;63.80;;;;;;5031720;28;20025;-67
2023/05/02 11:58:14;;;;;;;5.18;0.70;;;18.00;63.80;;;;;;5015066;28;20064;-68
2023/05/02 12:00:41;;;;;;;2.97;1.05;;;18.00;64.00;;;;;;5031460;28;20022;-67
2023/05/02 12:03:08;;;;;;;2.30;0.77;;;18.00;63.80;;;;;;5032644;28;20072;-67
2023/05/02 12:05:33;;;;;;;1.42;0.60;;;18.00;63.90;;;;;;5032615;28;20460;-68
2023/05/02 12:08:00;;;;;;;1.58;0.55;;;18.00;63.90;;;;;;5032558;28;20071;-68
2023/05/02 12:10:35;;;;;;;1.52;0.88;;;18.00;63.90;;;;;;5032508;28;20080;-67
2023/05/02 12:13:03;;;;;;;1.50;0.63;;;18.00;63.90;;;;;;5032478;28;20025;-67
2023/05/02 12:15:29;;;;;;;2.47;0.70;;;18.00;63.80;;;;;;5032478;28;20068;-67
2023/05/02 12:17:55;;;;;;;1.58;0.55;;;18.00;63.60;;;;;;5032234;28;20053;-67
2023/05/02 12:20:20;;;;;;;1.15;0.82;;;18.00;64.10;;;;;;5031323;28;20036;-67
2023/05/02 12:22:46;;;;;;;0.70;0.70;;;18.00;64.00;;;;;;5030350;28;20029;-67
2023/05/02 12:25:12;;;;;;;4.40;0.70;;;18.00;63.90;;;;;;5032408;28;20096;-67
2023/05/02 12:27:38;;;;;;;1.60;0.63;;;18.10;64.10;;;;;;5031125;28;20464;-67
2023/05/02 12:30:04;;;;;;;0.50;0.50;;;18.00;64.10;;;;;;5032351;28;20100;-67
2023/05/02 12:32:31;;;;;;;3.47;0.90;;;18.00;64.10;;;;;;5032123;28;20163;-67
2023/05/02 12:34:58;;;;;;;1.73;0.68;;;18.10;64.10;;;;;;5031372;28;20096;-68
2023/05/02 12:37:24;;;;;;;1.55;0.70;;;18.00;64.10;;;;;;5014655;28;20025;-67
2023/05/02 12:39:50;;;;;;;2.25;0.55;;;18.00;64.10;;;;;;5032102;28;20067;-67
2023/05/02 12:42:16;;;;;;;2.85;0.93;;;18.00;64.00;;;;;;5032162;28;20026;-68
2023/05/02 12:44:43;;;;;;;1.45;0.82;;;18.10;64.20;;;;;;5014653;28;20434;-67
2023/05/02 12:47:10;;;;;;;1.08;0.60;;;18.10;64.10;;;;;;5014692;28;20068;-67
2023/05/02 12:49:49;;;;;;;1.52;0.93;;;18.10;64.00;;;;;;5032183;28;20403;-67
2023/05/02 12:52:16;;;;;;;1.75;0.80;;;18.10;64.00;;;;;;5031184;28;20025;-67
2023/05/02 12:54:41;;;;;;;1.85;0.60;;;18.10;64.10;;;;;;5032012;28;20492;-67